Time;durP1;ratioP1;P1;durP2;ratioP2;P2;SDS_P1;SDS_P2;PMS_P1;PMS_P2;Temp;Humidity;BMP_temperature;BMP_pressure;BME280_temperature;BME280_humidity;BME280_pressure;Samples;Min_cycle;Max_cycle;Signal;HPM_P1;HPM_P2
2023/06/10 00:00:41;;;;;;;19.00;16.70;;;;;;;17.12;98.66;96364.14;108844;1273;22555;-91
2023/06/10 00:03:36;;;;;;;19.30;16.60;;;;;;;17.12;98.68;96364.99;108833;1268;22524;-90
2023/06/10 00:06:11;;;;;;;18.50;16.50;;;;;;;17.14;98.73;96366.34;108930;1254;22516;-91
2023/06/10 00:08:43;;;;;;;18.90;16.90;;;;;;;17.13;98.67;96364.80;108765;1269;55976;-92
2023/06/10 00:11:15;;;;;;;19.20;17.10;;;;;;;17.10;98.64;96361.86;108804;1276;23809;-91
2023/06/10 00:13:49;;;;;;;18.90;15.90;;;;;;;17.09;98.60;96362.34;108844;1268;22524;-91
2023/06/10 00:16:25;;;;;;;18.00;15.20;;;;;;;17.09;98.65;96358.91;108865;1276;22597;-92
2023/06/10 00:19:00;;;;;;;17.30;14.70;;;;;;;17.09;98.69;96356.98;108775;1276;75590;-92
2023/06/10 00:21:37;;;;;;;18.30;15.60;;;;;;;17.09;98.56;96354.37;108914;1276;25249;-92
2023/06/10 00:24:11;;;;;;;16.40;14.80;;;;;;;17.04;98.41;96352.21;108877;1276;22561;-91
2023/06/10 00:26:47;;;;;;;15.70;13.50;;;;;;;17.02;98.47;96350.97;108867;1276;22531;-91
2023/06/10 00:29:21;;;;;;;14.50;12.90;;;;;;;17.02;98.40;96348.06;108727;1276;62554;-90
2023/06/10 00:31:57;;;;;;;16.40;13.20;;;;;;;16.99;98.19;96349.23;108832;1273;22560;-91
2023/06/10 00:34:30;;;;;;;13.80;12.00;;;;;;;16.95;98.10;96350.56;108848;1276;24294;-91
2023/06/10 00:37:05;;;;;;;14.50;11.40;;;;;;;16.85;97.54;96352.88;108893;1276;22670;-91
2023/06/10 00:39:36;;;;;;;14.50;11.60;;;;;;;16.73;97.51;96355.31;107359;1272;2076927;-91
2023/06/10 00:42:12;;;;;;;13.10;11.00;;;;;;;16.67;97.74;96352.81;108945;1275;22516;-91
2023/06/10 00:44:51;;;;;;;15.50;11.20;;;;;;;16.65;98.04;96352.98;108897;1275;22521;-90
2023/06/10 00:47:23;;;;;;;10.80;9.70;;;;;;;16.67;98.24;96353.54;108933;1272;22540;-91
2023/06/10 00:49:59;;;;;;;11.30;10.00;;;;;;;16.67;98.10;96348.24;108914;1275;117434;-91
2023/06/10 00:52:32;;;;;;;11.90;10.10;;;;;;;16.65;97.92;96356.19;108938;1275;22642;-91
2023/06/10 00:55:11;;;;;;;10.80;9.70;;;;;;;16.62;97.86;96355.85;108942;1275;22522;-91
2023/06/10 00:57:48;;;;;;;13.10;10.20;;;;;;;16.60;97.88;96362.88;108960;1275;22563;-91
2023/06/10 01:00:22;;;;;;;12.80;10.60;;;;;;;16.58;97.95;96371.59;108911;1270;68791;-92
2023/06/10 01:02:54;;;;;;;12.10;10.80;;;;;;;16.59;98.05;96369.64;108942;1275;22526;-91
2023/06/10 01:05:33;;;;;;;11.50;10.20;;;;;;;16.62;98.31;96368.26;108958;1275;25318;-91
2023/06/10 01:08:13;;;;;;;11.60;9.70;;;;;;;16.66;98.22;96369.91;108891;1272;56593;-91
2023/06/10 01:11:01;;;;;;;12.80;11.00;;;;;;;16.55;97.64;96368.78;109024;1267;22517;-91
2023/06/10 01:13:42;;;;;;;12.70;11.40;;;;;;;16.40;97.76;96369.11;108945;1273;22536;-91
2023/06/10 01:16:15;;;;;;;14.90;12.80;;;;;;;16.30;98.11;96373.38;109024;1271;22540;-91
2023/06/10 01:18:54;;;;;;;14.10;11.80;;;;;;;16.25;98.51;96373.31;108928;1275;83155;-91
2023/06/10 01:21:27;;;;;;;12.40;10.90;;;;;;;16.22;98.78;96376.66;108991;1268;22531;-92
2023/06/10 01:24:02;;;;;;;14.60;12.00;;;;;;;16.20;98.97;96378.63;108973;1275;22542;-92
2023/06/10 01:26:42;;;;;;;13.90;11.70;;;;;;;16.21;99.18;96382.63;108959;1275;22550;-91
2023/06/10 01:29:20;;;;;;;15.10;13.10;;;;;;;16.21;99.40;96383.02;109053;1252;72882;-92
2023/06/10 01:32:02;;;;;;;12.10;10.70;;;;;;;16.24;99.62;96389.34;108842;1274;24225;-91
2023/06/10 01:34:39;;;;;;;15.80;13.70;;;;;;;16.31;99.87;96390.31;108783;1277;22514;-91
2023/06/10 01:37:24;;;;;;;16.10;14.10;;;;;;;16.35;99.79;96391.55;108724;1271;22524;-91
2023/06/10 01:40:02;;;;;;;15.90;13.80;;;;;;;16.39;99.88;96392.84;108742;1276;54831;-91
2023/06/10 01:42:37;;;;;;;13.40;12.00;;;;;;;16.43;99.92;96388.95;108823;1270;22540;-91
2023/06/10 01:45:14;;;;;;;16.60;13.00;;;;;;;16.45;99.83;96389.48;108851;1277;22531;-90
2023/06/10 01:47:47;;;;;;;13.30;12.00;;;;;;;16.49;99.91;96391.64;108835;1276;22520;-91
2023/06/10 01:50:20;;;;;;;15.70;14.10;;;;;;;16.55;100.00;96391.11;107394;1269;1832395;-91
2023/06/10 01:52:58;;;;;;;17.50;13.50;;;;;;;16.55;99.74;96392.02;108774;1269;22619;-91
2023/06/10 01:55:32;;;;;;;17.70;14.00;;;;;;;16.46;99.53;96388.91;108781;1274;22524;-91
2023/06/10 01:58:09;;;;;;;;;;;;;;;16.40;99.80;96389.37;108780;1267;44503;-91
2023/06/10 02:00:43;;;;;;;15.50;13.90;;;;;;;16.45;100.00;96389.55;108787;1276;23814;-91
2023/06/10 02:03:17;;;;;;;15.80;14.10;;;;;;;16.49;100.00;96395.77;108784;1272;22542;-91
2023/06/10 02:05:58;;;;;;;17.10;15.30;;;;;;;16.52;100.00;96391.41;108844;1258;22532;-90
2023/06/10 02:08:31;;;;;;;19.30;16.10;;;;;;;16.55;100.00;96390.89;106473;1276;3150417;-91
2023/06/10 02:11:06;;;;;;;18.30;15.80;;;;;;;16.57;100.00;96391.06;108896;1277;23728;-90
2023/06/10 02:13:39;;;;;;;21.00;17.40;;;;;;;16.59;100.00;96394.95;108891;1258;24402;-92
2023/06/10 02:16:12;;;;;;;20.10;17.50;;;;;;;16.60;100.00;96391.49;108892;1270;22553;-91
2023/06/10 02:18:49;;;;;;;19.00;16.90;;;;;;;16.61;100.00;96390.62;108817;1277;48983;-90
2023/06/10 02:21:21;;;;;;;21.40;18.60;;;;;;;16.61;100.00;96391.38;108845;1272;24253;-91
2023/06/10 02:23:52;;;;;;;21.20;18.90;;;;;;;16.62;100.00;96392.13;108597;1277;324571;-91
2023/06/10 02:26:25;;;;;;;23.30;20.60;;;;;;;16.64;100.00;96392.56;108814;1270;22520;-91
2023/06/10 02:28:58;;;;;;;22.70;20.30;;;;;;;16.64;100.00;96390.89;108695;1273;65451;-92
2023/06/10 02:31:35;;;;;;;24.00;21.00;;;;;;;16.63;100.00;96391.92;108778;1277;24234;-92
2023/06/10 02:34:07;;;;;;;14.60;13.00;;;;;;;16.64;100.00;96389.88;108725;1276;22521;-91
2023/06/10 02:36:42;;;;;;;18.30;15.20;;;;;;;16.62;100.00;96389.52;108779;1274;22515;-89
2023/06/10 02:39:15;;;;;;;18.30;16.30;;;;;;;16.62;100.00;96384.44;108739;1272;61061;-91
2023/06/10 02:41:48;;;;;;;20.10;16.00;;;;;;;16.57;100.00;96388.01;108805;1277;22526;-91
2023/06/10 02:44:26;;;;;;;16.30;14.60;;;;;;;16.56;100.00;96391.16;108816;1277;24237;-92
2023/06/10 02:47:00;;;;;;;17.20;15.30;;;;;;;16.56;100.00;96391.23;108825;1274;22692;-91
2023/06/10 02:49:34;;;;;;;17.40;15.50;;;;;;;16.55;100.00;96389.38;108753;1277;88550;-91
2023/06/10 02:52:07;;;;;;;19.40;16.80;;;;;;;16.58;100.00;96389.17;108824;1277;22532;-92
2023/06/10 02:54:46;;;;;;;21.20;17.70;;;;;;;16.60;100.00;96388.94;108770;1277;25308;-90
2023/06/10 02:57:22;;;;;;;18.80;16.80;;;;;;;16.61;100.00;96394.38;108756;1277;22544;-92
2023/06/10 02:59:58;;;;;;;21.80;18.20;;;;;;;16.61;100.00;96395.89;108765;1277;61067;-91
2023/06/10 03:02:31;;;;;;;22.80;17.90;;;;;;;16.63;100.00;96398.11;108833;1274;22515;-91
2023/06/10 03:05:09;;;;;;;19.50;17.50;;;;;;;16.66;100.00;96400.04;108793;1277;22524;-90
2023/06/10 03:07:43;;;;;;;17.50;15.70;;;;;;;16.67;100.00;96402.52;108763;1277;22533;-91
2023/06/10 03:10:17;;;;;;;16.30;14.60;;;;;;;16.66;100.00;96406.10;108798;1270;51551;-90
2023/06/10 03:12:51;;;;;;;16.60;15.00;;;;;;;16.65;100.00;96406.61;108871;1277;25300;-91
2023/06/10 03:15:24;;;;;;;18.70;15.90;;;;;;;16.65;100.00;96406.98;108829;1275;23531;-91
2023/06/10 03:18:03;;;;;;;23.80;20.10;;;;;;;16.67;100.00;96408.64;108859;1277;22576;-91
2023/06/10 03:20:40;;;;;;;29.50;26.40;;;;;;;16.68;100.00;96410.98;108649;1274;69367;-90
2023/06/10 03:23:15;;;;;;;27.60;23.90;;;;;;;16.69;100.00;96414.41;108841;1276;24242;-91
2023/06/10 03:25:49;;;;;;;28.80;25.40;;;;;;;16.70;100.00;96412.30;108786;1274;22531;-90
2023/06/10 03:28:25;;;;;;;29.80;25.70;;;;;;;16.71;100.00;96417.23;108798;1275;51233;-90
2023/06/10 03:30:56;;;;;;;31.90;26.70;;;;;;;16.71;100.00;96415.63;108748;1274;22944;-90
2023/06/10 03:33:33;;;;;;;31.40;26.70;;;;;;;16.71;100.00;96419.23;108801;1276;22692;-91
2023/06/10 03:36:06;;;;;;;33.30;29.40;;;;;;;16.71;100.00;96415.26;108765;1273;26195;-91
2023/06/10 03:38:39;;;;;;;29.80;26.60;;;;;;;16.70;100.00;96419.28;108767;1276;81407;-90
2023/06/10 03:41:13;;;;;;;29.90;26.80;;;;;;;16.68;100.00;96419.67;108813;1277;24146;-90
2023/06/10 03:43:47;;;;;;;30.40;27.20;;;;;;;16.69;100.00;96419.67;108731;1277;22522;-92
2023/06/10 03:46:20;;;;;;;32.40;28.30;;;;;;;16.69;100.00;96421.44;108670;1275;22561;-90
2023/06/10 03:48:52;;;;;;;31.10;27.70;;;;;;;16.72;100.00;96423.31;108764;1274;86730;-90
2023/06/10 03:51:26;;;;;;;28.70;25.50;;;;;;;16.72;100.00;96426.17;108872;1275;23220;-91
2023/06/10 03:54:00;;;;;;;29.20;26.10;;;;;;;16.72;100.00;96424.78;108757;1277;24245;-91
2023/06/10 03:56:32;;;;;;;33.40;27.70;;;;;;;16.73;100.00;96423.14;108823;1276;22552;-91
2023/06/10 03:59:08;;;;;;;30.90;26.30;;;;;;;16.74;100.00;96426.63;108797;1270;66606;-91
2023/06/10 04:01:43;;;;;;;28.20;24.90;;;;;;;16.77;100.00;96428.60;108849;1276;22515;-91
2023/06/10 04:04:18;;;;;;;30.90;25.60;;;;;;;16.79;100.00;96427.30;108826;1277;22548;-90
2023/06/10 04:06:50;;;;;;;31.70;26.80;;;;;;;16.79;100.00;96429.43;108805;1271;22538;-90
2023/06/10 04:09:23;;;;;;;29.90;24.80;;;;;;;16.80;100.00;96430.55;108747;1275;37996;-92
2023/06/10 04:11:56;;;;;;;33.30;26.10;;;;;;;16.82;100.00;96427.63;108825;1269;22536;-90
2023/06/10 04:14:37;;;;;;;31.10;26.00;;;;;;;16.83;100.00;96430.66;108821;1276;22638;-90
2023/06/10 04:17:09;;;;;;;31.90;27.00;;;;;;;16.85;100.00;96431.56;108655;1275;22520;-91
2023/06/10 04:19:41;;;;;;;34.30;26.70;;;;;;;16.85;100.00;96429.13;108771;1277;65419;-91
2023/06/10 04:22:12;;;;;;;31.30;27.30;;;;;;;16.86;100.00;96428.63;108839;1275;24270;-90
2023/06/10 04:24:49;;;;;;;35.70;27.00;;;;;;;16.86;100.00;96429.16;108814;1276;22557;-91
2023/06/10 04:27:21;;;;;;;34.50;27.10;;;;;;;16.86;100.00;96425.48;108838;1277;22528;-90
2023/06/10 04:29:55;;;;;;;36.20;28.60;;;;;;;16.84;100.00;96430.17;108760;1274;110795;-90
2023/06/10 04:32:27;;;;;;;35.80;28.20;;;;;;;16.82;100.00;96433.38;108811;1274;24274;-90
2023/06/10 04:34:59;;;;;;;37.30;29.10;;;;;;;16.82;100.00;96430.39;108788;1276;22549;-91
2023/06/10 04:37:33;;;;;;;36.50;28.90;;;;;;;16.81;100.00;96433.55;108850;1260;24285;-90
2023/06/10 04:40:10;;;;;;;37.90;29.90;;;;;;;16.79;100.00;96430.90;108773;1276;51233;-91
2023/06/10 04:42:44;;;;;;;37.30;28.50;;;;;;;16.79;100.00;96433.71;108736;1277;22530;-91
2023/06/10 04:45:15;;;;;;;35.40;28.10;;;;;;;16.79;100.00;96433.94;108852;1277;22529;-90
2023/06/10 04:47:47;;;;;;;36.20;27.60;;;;;;;16.78;100.00;96437.65;108790;1254;22535;-91
2023/06/10 04:50:18;;;;;;;37.00;28.30;;;;;;;16.78;100.00;96438.98;108767;1270;51597;-91
2023/06/10 04:52:50;;;;;;;36.70;27.30;;;;;;;16.79;100.00;96440.52;108746;1276;22774;-91
2023/06/10 04:55:25;;;;;;;36.30;27.80;;;;;;;16.79;100.00;96440.74;108767;1276;22518;-90
2023/06/10 04:57:57;;;;;;;37.30;27.80;;;;;;;16.78;100.00;96440.11;108812;1274;22538;-90
2023/06/10 05:00:31;;;;;;;37.90;27.20;;;;;;;16.79;100.00;96443.45;108655;1277;122220;-90
2023/06/10 05:03:03;;;;;;;34.40;27.40;;;;;;;16.79;100.00;96448.64;108788;1277;22566;-91
2023/06/10 05:05:35;;;;;;;37.60;27.80;;;;;;;16.78;100.00;96446.86;108810;1277;24305;-91
2023/06/10 05:08:08;;;;;;;36.70;26.40;;;;;;;16.79;100.00;96454.06;108819;1274;22529;-91
2023/06/10 05:10:43;;;;;;;33.70;26.00;;;;;;;16.80;100.00;96451.75;108745;1273;38053;-90
2023/06/10 05:13:14;;;;;;;33.40;27.00;;;;;;;16.82;100.00;96454.73;108651;1277;22627;-90
2023/06/10 05:15:52;;;;;;;33.50;26.10;;;;;;;16.85;100.00;96454.69;108693;1271;22515;-90
2023/06/10 05:18:26;;;;;;;36.10;27.50;;;;;;;16.88;100.00;96460.56;107004;1268;2283786;-91
2023/06/10 05:20:58;;;;;;;38.00;28.50;;;;;;;16.90;100.00;96460.95;108756;1274;22603;-90
2023/06/10 05:23:30;;;;;;;37.30;28.30;;;;;;;16.91;100.00;96459.52;108760;1277;22527;-90
2023/06/10 05:26:01;;;;;;;39.20;28.10;;;;;;;16.91;100.00;96460.69;108752;1277;22683;-90
2023/06/10 05:28:34;;;;;;;38.60;28.20;;;;;;;16.90;100.00;96463.58;108770;1268;58119;-91
2023/06/10 05:31:05;;;;;;;40.60;28.20;;;;;;;16.88;100.00;96461.59;108843;1277;22760;-90
2023/06/10 05:33:37;;;;;;;41.30;29.80;;;;;;;16.87;100.00;96462.73;108705;1277;22528;-90
2023/06/10 05:36:10;;;;;;;42.30;30.60;;;;;;;16.90;100.00;96467.21;108769;1277;22611;-90
2023/06/10 05:38:45;;;;;;;40.20;31.50;;;;;;;16.92;100.00;96468.75;108648;1274;111085;-90
2023/06/10 05:41:20;;;;;;;42.70;33.00;;;;;;;16.93;100.00;96469.30;108803;1277;22541;-90
2023/06/10 05:43:52;;;;;;;42.70;33.10;;;;;;;16.94;100.00;96468.95;108790;1260;22535;-91
2023/06/10 05:46:32;;;;;;;42.40;33.80;;;;;;;16.94;100.00;96470.73;108789;1274;25493;-90
2023/06/10 05:49:05;;;;;;;39.70;32.00;;;;;;;16.95;100.00;96468.38;108759;1276;39095;-90
2023/06/10 05:51:37;;;;;;;38.70;31.90;;;;;;;16.97;100.00;96470.98;108734;1277;25260;-91
2023/06/10 05:54:08;;;;;;;39.50;32.00;;;;;;;16.98;100.00;96476.08;108753;1275;22521;-90
2023/06/10 05:56:42;;;;;;;41.20;32.30;;;;;;;17.01;100.00;96477.58;108684;1276;22533;-90
2023/06/10 05:59:13;;;;;;;40.30;31.60;;;;;;;17.03;100.00;96479.08;108683;1273;53938;-90
2023/06/10 06:01:44;;;;;;;39.00;31.40;;;;;;;17.02;100.00;96480.91;108696;1273;22527;-90
2023/06/10 06:04:16;;;;;;;34.80;30.00;;;;;;;17.01;100.00;96477.19;108704;1277;22517;-90
2023/06/10 06:06:47;;;;;;;40.50;33.40;;;;;;;17.00;100.00;96478.46;108710;1277;25363;-90
2023/06/10 06:09:19;;;;;;;41.00;34.10;;;;;;;17.00;100.00;96479.50;106802;1274;2565538;-90
2023/06/10 06:11:50;;;;;;;41.50;33.00;;;;;;;16.95;100.00;96487.39;108725;1277;22534;-90
2023/06/10 06:14:22;;;;;;;39.50;31.80;;;;;;;16.93;100.00;96485.16;108715;1277;22522;-89
2023/06/10 06:16:57;;;;;;;38.20;31.80;;;;;;;16.93;100.00;96479.87;108707;1277;22519;-90
2023/06/10 06:19:28;;;;;;;39.40;32.70;;;;;;;16.93;100.00;96484.30;108652;1277;57647;-91
2023/06/10 06:22:00;;;;;;;39.00;32.30;;;;;;;16.93;100.00;96481.16;108647;1277;22514;-90
2023/06/10 06:24:35;;;;;;;40.10;31.20;;;;;;;16.93;100.00;96482.08;108662;1276;22673;-90
2023/06/10 06:27:10;;;;;;;43.00;33.40;;;;;;;16.92;100.00;96480.15;108707;1274;22521;-91
2023/06/10 06:29:41;;;;;;;40.20;33.00;;;;;;;16.92;100.00;96480.75;108709;1273;38241;-91
2023/06/10 06:32:13;;;;;;;43.80;34.50;;;;;;;16.92;100.00;96483.90;108713;1277;22558;-90
2023/06/10 06:34:44;;;;;;;43.30;34.50;;;;;;;16.91;100.00;96487.15;108755;1260;22530;-91
2023/06/10 06:37:27;;;;;;;37.10;32.60;;;;;;;16.90;100.00;96492.14;108697;1273;23345;-91
2023/06/10 06:40:03;;;;;;;40.10;33.80;;;;;;;16.89;100.00;96496.44;108672;1277;93088;-90
2023/06/10 06:42:37;;;;;;;39.70;33.30;;;;;;;16.86;100.00;96500.07;108727;1276;22547;-90
2023/06/10 06:45:10;;;;;;;42.50;32.90;;;;;;;16.84;100.00;96501.77;108733;1254;22531;-91
2023/06/10 06:47:43;;;;;;;38.30;31.40;;;;;;;16.84;100.00;96507.11;108714;1277;22541;-90
2023/06/10 06:50:18;;;;;;;37.90;30.30;;;;;;;16.82;100.00;96507.27;108648;1277;49009;-90
2023/06/10 06:52:54;;;;;;;40.50;31.70;;;;;;;16.80;100.00;96508.80;108717;1270;22552;-91
2023/06/10 06:55:28;;;;;;;37.90;31.90;;;;;;;16.77;100.00;96514.70;108721;1254;22529;-91
2023/06/10 06:58:08;;;;;;;38.40;31.40;;;;;;;16.75;100.00;96516.54;108706;1277;26443;-92
2023/06/10 07:00:42;;;;;;;41.70;31.30;;;;;;;16.73;100.00;96513.09;108700;1270;47565;-90
2023/06/10 07:03:14;;;;;;;37.70;30.30;;;;;;;16.71;100.00;96513.86;108725;1271;22641;-91
2023/06/10 07:05:51;;;;;;;38.30;30.20;;;;;;;16.71;100.00;96514.08;108728;1277;22551;-91
2023/06/10 07:08:28;;;;;;;36.60;31.20;;;;;;;16.69;100.00;96521.58;108676;1276;22531;-91
2023/06/10 07:11:00;;;;;;;40.90;31.70;;;;;;;16.68;100.00;96522.44;108701;1270;25337;-91
2023/06/10 07:13:32;;;;;;;35.40;31.30;;;;;;;16.66;100.00;96526.54;108727;1270;22541;-90
2023/06/10 07:16:14;;;;;;;34.60;30.60;;;;;;;16.66;100.00;96526.69;108799;1277;22575;-90
2023/06/10 07:18:58;;;;;;;39.90;31.30;;;;;;;16.66;100.00;96530.08;108692;1276;89856;-90
2023/06/10 07:21:34;;;;;;;36.30;29.70;;;;;;;16.69;100.00;96530.68;108793;1276;25334;-90
2023/06/10 07:24:07;;;;;;;34.90;27.40;;;;;;;16.73;100.00;96528.71;108803;1274;22538;-90
2023/06/10 07:26:40;;;;;;;31.50;25.60;;;;;;;16.79;100.00;96531.77;108803;1276;22569;-90
2023/06/10 07:29:14;;;;;;;32.90;26.00;;;;;;;16.84;100.00;96531.58;107384;1267;1786399;-90
2023/06/10 07:31:49;;;;;;;31.20;24.00;;;;;;;16.92;100.00;96534.09;108801;1270;22558;-91
2023/06/10 07:34:25;;;;;;;29.40;24.00;;;;;;;17.02;100.00;96533.55;108729;1276;22573;-90
2023/06/10 07:37:00;;;;;;;28.70;23.40;;;;;;;17.08;100.00;96536.73;108714;1270;23104;-90
2023/06/10 07:39:33;;;;;;;24.70;20.40;;;;;;;17.16;100.00;96534.74;108635;1276;54912;-90
2023/06/10 07:42:09;;;;;;;24.70;21.70;;;;;;;17.23;100.00;96535.79;108723;1267;22534;-90
2023/06/10 07:44:43;;;;;;;24.60;19.80;;;;;;;17.28;100.00;96538.27;108708;1273;22537;-89
2023/06/10 07:47:17;;;;;;;20.40;17.60;;;;;;;17.32;100.00;96540.66;108691;1276;24254;-89
2023/06/10 07:49:52;;;;;;;22.00;17.50;;;;;;;17.40;100.00;96541.02;108672;1276;70617;-89
2023/06/10 07:52:24;;;;;;;18.20;14.80;;;;;;;17.49;100.00;96546.77;108701;1272;22566;-89
2023/06/10 07:54:55;;;;;;;16.70;14.60;;;;;;;17.56;100.00;96549.92;108687;1270;22564;-89
2023/06/10 07:57:28;;;;;;;16.00;13.80;;;;;;;17.69;100.00;96550.00;108676;1270;22610;-89
2023/06/10 08:00:00;;;;;;;18.20;13.00;;;;;;;17.85;100.00;96549.62;108652;1267;49352;-88
2023/06/10 08:02:37;;;;;;;15.60;13.00;;;;;;;18.04;100.00;96550.48;108718;1277;22539;-89
2023/06/10 08:05:11;;;;;;;18.70;13.20;;;;;;;18.26;100.00;96550.30;108689;1276;22525;-88
2023/06/10 08:07:48;;;;;;;15.30;12.60;;;;;;;18.42;100.00;96552.61;108737;1277;24438;-89
2023/06/10 08:10:28;;;;;;;16.30;13.20;;;;;;;18.56;100.00;96554.87;108646;1276;106951;-89
2023/06/10 08:13:06;;;;;;;15.60;12.70;;;;;;;18.65;100.00;96551.90;108722;1276;22520;-89
2023/06/10 08:15:43;;;;;;;16.70;13.50;;;;;;;18.79;100.00;96553.67;108694;1270;24402;-89
2023/06/10 08:18:20;;;;;;;16.30;13.80;;;;;;;18.83;100.00;96555.27;108660;1259;25558;-90
2023/06/10 08:20:56;;;;;;;16.80;14.80;;;;;;;18.89;100.00;96553.27;108619;1277;62446;-90
2023/06/10 08:23:28;;;;;;;17.40;13.70;;;;;;;18.98;100.00;96554.48;108614;1270;22522;-89
2023/06/10 08:26:12;;;;;;;17.60;14.80;;;;;;;19.03;100.00;96555.58;108686;1277;22537;-89
2023/06/10 08:28:49;;;;;;;18.10;15.10;;;;;;;19.03;99.75;96559.02;108657;1260;69504;-90
2023/06/10 08:31:23;;;;;;;19.00;14.80;;;;;;;19.00;99.39;96559.98;108704;1270;22614;-89
2023/06/10 08:33:58;;;;;;;18.50;14.90;;;;;;;18.96;99.11;96561.19;108722;1270;22552;-89
2023/06/10 08:36:30;;;;;;;18.70;16.30;;;;;;;18.93;99.05;96560.64;108712;1269;22550;-89
2023/06/10 08:39:03;;;;;;;17.90;15.90;;;;;;;18.91;98.79;96564.61;108654;1276;42740;-90
2023/06/10 08:41:44;;;;;;;19.40;17.30;;;;;;;18.86;98.53;96568.36;108671;1277;22556;-89
2023/06/10 08:44:29;;;;;;;20.80;17.10;;;;;;;18.82;98.40;96568.39;108649;1270;22521;-89
2023/06/10 08:47:08;;;;;;;20.30;17.50;;;;;;;18.85;98.68;96564.79;108678;1277;26462;-89
2023/06/10 08:49:44;;;;;;;20.20;18.10;;;;;;;18.91;98.87;96567.08;108649;1270;43289;-89
2023/06/10 08:52:26;;;;;;;18.80;16.90;;;;;;;18.94;98.70;96563.12;108697;1270;22561;-89
2023/06/10 08:55:12;;;;;;;20.70;18.60;;;;;;;18.98;98.25;96565.52;108744;1270;25387;-89
2023/06/10 08:57:49;;;;;;;22.90;20.50;;;;;;;19.04;97.96;96563.27;108689;1273;24269;-89
2023/06/10 09:00:27;;;;;;;21.20;18.90;;;;;;;19.05;97.28;96562.85;108619;1277;100412;-90
2023/06/10 09:03:08;;;;;;;20.90;18.80;;;;;;;19.00;96.71;96563.75;108724;1272;22630;-90
2023/06/10 09:05:47;;;;;;;20.60;18.50;;;;;;;19.00;96.77;96561.54;108724;1273;22514;-90
2023/06/10 09:08:32;;;;;;;21.20;19.10;;;;;;;19.02;96.72;96562.13;108708;1270;22516;-89
2023/06/10 09:11:09;;;;;;;19.00;17.30;;;;;;;19.03;96.57;96556.40;108709;1274;22533;-91
2023/06/10 09:13:57;;;;;;;19.60;17.90;;;;;;;19.08;96.75;96552.04;108789;1273;22524;-90
2023/06/10 09:16:30;;;;;;;19.10;17.20;;;;;;;19.14;96.62;96557.92;108737;1277;22525;-90
2023/06/10 09:19:07;;;;;;;18.80;17.00;;;;;;;19.17;95.98;96555.89;108643;1270;92264;-89
2023/06/10 09:21:40;;;;;;;18.70;16.80;;;;;;;19.19;95.66;96555.72;108695;1277;22537;-90
2023/06/10 09:24:20;;;;;;;19.30;17.30;;;;;;;19.22;95.14;96555.11;108703;1277;22540;-90
2023/06/10 09:27:08;;;;;;;18.80;17.00;;;;;;;19.31;95.19;96552.17;108714;1277;22524;-88
2023/06/10 09:29:54;;;;;;;18.60;16.80;;;;;;;19.45;95.53;96554.83;106802;1277;2575670;-90
2023/06/10 09:32:29;;;;;;;18.40;16.60;;;;;;;19.57;95.41;96554.41;108704;1273;22594;-88
2023/06/10 09:35:12;;;;;;;16.30;14.70;;;;;;;19.69;94.75;96554.08;108771;1273;22548;-88
2023/06/10 09:37:47;;;;;;;16.90;15.20;;;;;;;19.68;93.65;96552.04;108724;1274;22600;-87
2023/06/10 09:40:28;;;;;;;16.20;14.50;;;;;;;19.70;93.14;96553.63;107137;1270;2068101;-89
2023/06/10 09:43:12;;;;;;;16.70;15.10;;;;;;;19.75;92.96;96554.52;108691;1277;22646;-88
2023/06/10 09:45:57;;;;;;;16.50;14.90;;;;;;;19.77;92.55;96556.55;108697;1271;22532;-88
2023/06/10 09:48:57;;;;;;;15.40;13.90;;;;;;;19.67;91.50;96553.73;108695;1270;22570;-88
2023/06/10 09:51:48;;;;;;;16.60;15.00;;;;;;;19.60;91.28;96552.11;108675;1270;22788;-87
2023/06/10 09:54:22;;;;;;;16.40;14.70;;;;;;;19.53;91.22;96551.52;108684;1273;22566;-88
2023/06/10 09:57:20;;;;;;;15.90;14.40;;;;;;;19.46;90.89;96549.38;108688;1273;24250;-88
2023/06/10 10:00:01;;;;;;;16.50;13.70;;;;;;;19.43;90.80;96545.52;106965;1275;2175028;-87
2023/06/10 10:02:50;;;;;;;14.90;13.50;;;;;;;19.43;90.99;96547.27;108636;1277;22531;-87
2023/06/10 10:05:29;;;;;;;16.70;15.20;;;;;;;19.46;91.46;96545.98;108715;1277;22581;-87
2023/06/10 10:08:14;;;;;;;15.30;13.80;;;;;;;19.53;92.91;96545.41;108676;1270;22558;-87
2023/06/10 10:10:51;;;;;;;15.60;14.00;;;;;;;19.48;92.25;96545.96;108621;1276;81606;-88
2023/06/10 10:13:30;;;;;;;14.60;12.90;;;;;;;19.41;92.43;96546.27;108682;1277;26175;-88
2023/06/10 10:16:13;;;;;;;18.20;13.10;;;;;;;19.38;92.31;96543.71;108665;1277;22575;-87
2023/06/10 10:18:48;;;;;;;13.70;12.30;;;;;;;19.45;93.07;96544.86;108663;1270;22554;-87
2023/06/10 10:21:27;;;;;;;13.30;12.10;;;;;;;19.58;93.87;96544.66;108669;1270;22533;-89
2023/06/10 10:24:10;;;;;;;12.20;11.00;;;;;;;19.68;93.44;96546.14;108651;1272;25290;-87
2023/06/10 10:26:49;;;;;;;11.70;10.40;;;;;;;19.76;93.28;96544.23;108706;1271;22552;-88
2023/06/10 10:29:31;;;;;;;13.10;11.50;;;;;;;19.75;91.99;96544.52;108605;1277;101545;-87
2023/06/10 10:32:14;;;;;;;11.50;10.40;;;;;;;19.71;91.78;96541.95;108640;1277;22563;-88
2023/06/10 10:35:10;;;;;;;12.30;11.00;;;;;;;19.71;91.46;96542.65;108696;1271;22554;-88
2023/06/10 10:37:53;;;;;;;9.80;8.80;;;;;;;19.79;92.00;96539.33;108729;1277;22520;-88
2023/06/10 10:40:32;;;;;;;12.10;9.60;;;;;;;19.93;91.23;96538.04;108635;1273;86043;-88
2023/06/10 10:43:15;;;;;;;11.60;9.40;;;;;;;20.05;90.33;96534.02;108676;1267;22531;-88
2023/06/10 10:46:08;;;;;;;9.90;8.90;;;;;;;20.07;89.78;96536.61;108683;1277;22530;-88
2023/06/10 10:48:45;;;;;;;8.70;7.90;;;;;;;19.97;88.21;96531.71;108733;1270;22566;-90
2023/06/10 10:51:27;;;;;;;10.60;9.10;;;;;;;19.77;87.30;96537.27;108693;1271;22595;-88
2023/06/10 10:54:22;;;;;;;11.50;8.70;;;;;;;19.71;87.43;96536.80;108647;1277;22552;-87
2023/06/10 10:57:23;;;;;;;9.30;8.30;;;;;;;19.74;87.46;96531.80;108713;1276;22541;-87
2023/06/10 11:00:04;;;;;;;9.10;8.20;;;;;;;19.82;87.73;96525.73;108635;1273;79961;-88
2023/06/10 11:02:53;;;;;;;9.90;8.90;;;;;;;20.04;88.53;96520.84;108694;1277;25301;-88
2023/06/10 11:05:49;;;;;;;8.30;7.50;;;;;;;20.29;87.76;96517.31;108680;1271;24419;-89
2023/06/10 11:08:55;;;;;;;12.30;8.00;;;;;;;20.31;86.25;96513.21;108693;1271;22542;-88
2023/06/10 11:11:45;;;;;;;12.50;8.00;;;;;;;20.36;85.94;96509.64;108728;1274;25362;-89
2023/06/10 11:14:38;;;;;;;9.30;7.10;;;;;;;20.35;85.24;96507.53;108702;1277;22633;-89
2023/06/10 11:17:24;;;;;;;8.60;7.70;;;;;;;20.25;85.04;96511.88;108703;1270;22534;-88
2023/06/10 11:20:01;;;;;;;7.20;6.50;;;;;;;20.26;85.37;96514.61;108642;1277;86225;-88
2023/06/10 11:22:56;;;;;;;8.80;6.90;;;;;;;20.29;85.04;96508.85;108677;1276;25265;-89
2023/06/10 11:26:19;;;;;;;9.00;7.30;;;;;;;20.21;84.04;96515.39;108769;1270;22535;-89
2023/06/10 11:29:26;;;;;;;9.50;8.50;;;;;;;20.09;85.04;96528.98;108796;1270;22541;-89
2023/06/10 11:32:20;;;;;;;8.90;7.70;;;;;;;19.95;85.60;96530.26;108689;1274;22528;-88
2023/06/10 11:35:29;;;;;;;8.10;7.10;;;;;;;19.76;86.00;96532.02;108767;1270;22534;-89
2023/06/10 11:38:24;;;;;;;;;;;;;;;;;;;;;
2023/06/10 11:41:09;;;;;;;9.30;7.60;;;;;;;19.33;86.15;96529.83;106956;1277;2452790;-89
2023/06/10 11:43:54;;;;;;;8.40;7.10;;;;;;;19.14;86.52;96538.27;108811;1270;24209;-89
2023/06/10 11:47:16;;;;;;;;;;;;;;;;;;;;;
2023/06/10 11:50:05;;;;;;;8.10;7.20;;;;;;;18.86;87.28;96547.11;108590;1267;117485;-90
2023/06/10 11:52:48;;;;;;;8.50;7.00;;;;;;;18.78;87.61;96544.30;108685;1273;26827;-89
2023/06/10 11:58:57;;;;;;;9.20;7.70;;;;;;;18.62;88.64;96559.16;108553;1276;22523;-88